Time;durP1;ratioP1;P1;durP2;ratioP2;P2;SDS_P1;SDS_P2;PMS_P1;PMS_P2;Temp;Humidity;BMP_temperature;BMP_pressure;BME280_temperature;BME280_humidity;BME280_pressure;Samples;Min_cycle;Max_cycle;Signal;HPM_P1;HPM_P2
2021/01/17 05:52:33;;;;;;;28.27;13.90;;;-0.40;99.90;;;;;;5793188;23;20249;-81
2021/01/17 05:54:59;;;;;;;26.53;13.57;;;-0.40;99.90;;;;;;5016173;28;20207;-82
2021/01/17 05:57:26;;;;;;;28.97;14.13;;;-0.40;99.90;;;;;;4999664;28;20174;-80
2021/01/17 05:59:55;;;;;;;27.57;12.97;;;-0.40;99.90;;;;;;5017514;28;20166;-80
2021/01/17 06:02:22;;;;;;;26.43;13.97;;;-0.30;99.90;;;;;;4998095;28;20277;-81
2021/01/17 06:05:02;;;;;;;29.27;14.00;;;-0.40;99.90;;;;;;5016598;28;20233;-81
2021/01/17 06:25:35;;;;;;;29.13;14.33;;;-0.60;99.90;;;;;;6098259;23;20180;-85
2021/01/17 06:28:14;;;;;;;26.50;13.50;;;-0.50;99.90;;;;;;4980864;28;20256;-83
2021/01/17 06:30:41;;;;;;;26.60;13.53;;;-0.50;99.90;;;;;;4982698;28;20208;-82
2021/01/17 06:33:07;;;;;;;36.87;16.60;;;-0.60;99.90;;;;;;4983736;28;20229;-82
2021/01/17 06:35:37;;;;;;;28.97;13.93;;;-0.60;99.90;;;;;;4980761;28;20178;-84
2021/01/17 06:38:17;;;;;;;27.33;13.13;;;-0.70;99.90;;;;;;4982179;28;20217;-82
2021/01/17 06:40:44;;;;;;;27.10;13.30;;;-0.60;99.90;;;;;;4977947;28;20190;-81
2021/01/17 06:43:11;;;;;;;27.83;13.87;;;-0.60;99.90;;;;;;4978175;28;20273;-82
2021/01/17 06:45:44;;;;;;;27.73;14.10;;;-0.60;99.90;;;;;;4976823;28;20234;-82
2021/01/17 06:48:24;;;;;;;25.93;12.60;;;-0.60;99.90;;;;;;4984051;28;20193;-81
2021/01/17 06:50:51;;;;;;;26.47;13.80;;;-0.60;99.90;;;;;;4982634;28;20539;-82
2021/01/17 06:53:25;;;;;;;28.20;13.40;;;-0.60;99.90;;;;;;4988472;28;20182;-83
2021/01/17 06:56:14;;;;;;;29.00;13.83;;;-0.60;99.90;;;;;;4979035;28;20198;-82
2021/01/17 06:58:40;;;;;;;26.17;12.87;;;-0.70;99.90;;;;;;4961075;28;20569;-84
2021/01/17 07:01:06;;;;;;;28.77;13.33;;;-0.70;99.90;;;;;;4957915;29;20183;-82
2021/01/17 07:03:51;;;;;;;29.43;14.17;;;-0.70;99.90;;;;;;4972327;28;20261;-82
2021/01/17 07:06:45;;;;;;;31.30;14.38;;;-0.70;99.90;;;;;;4980638;28;20441;-82
2021/01/17 07:09:39;;;;;;;32.75;19.55;;;-0.70;99.90;;;;;;4973154;28;20430;-82
2021/01/17 07:12:35;;;;;;;28.30;15.50;;;-0.60;99.90;;;;;;4976915;28;20174;-82
2021/01/17 07:15:06;;;;;;;26.50;14.30;;;-0.20;99.90;;;;;;4977961;28;20198;-82
2021/01/17 07:17:34;;;;;;;30.63;16.10;;;0.30;99.90;;;;;;4978292;28;20245;-81
2021/01/17 07:20:04;;;;;;;33.03;15.13;;;0.90;99.90;;;;;;4978661;28;20178;-83
2021/01/17 07:22:31;;;;;;;33.73;15.40;;;1.40;99.90;;;;;;4977646;28;20679;-85
2021/01/17 07:24:59;;;;;;;30.73;16.30;;;1.80;99.90;;;;;;4981288;28;20237;-83
2021/01/17 07:27:47;;;;;;;34.50;15.73;;;2.30;99.90;;;;;;4979605;28;20213;-83
2021/01/17 07:30:40;;;;;;;36.53;15.93;;;2.70;99.90;;;;;;4982595;28;20269;-83
2021/01/17 07:33:08;;;;;;;30.03;16.13;;;2.90;99.90;;;;;;4979742;28;20267;-85
2021/01/17 07:35:47;;;;;;;31.17;15.80;;;2.70;99.90;;;;;;4986468;28;20189;-84
2021/01/17 07:38:45;;;;;;;24.50;14.03;;;2.60;99.90;;;;;;4996274;28;20233;-83
2021/01/17 07:41:13;;;;;;;29.33;15.37;;;2.20;99.90;;;;;;4992804;28;20197;-84
2021/01/17 07:43:44;;;;;;;27.63;15.27;;;2.00;99.90;;;;;;4997067;28;20170;-82
2021/01/17 07:46:10;;;;;;;28.87;14.90;;;1.80;99.90;;;;;;4990924;28;20217;-84
2021/01/17 07:48:38;;;;;;;29.17;15.33;;;1.60;99.90;;;;;;4980578;28;20218;-83
2021/01/17 07:51:07;;;;;;;26.13;13.40;;;1.40;99.90;;;;;;4988029;28;20171;-84
2021/01/17 07:53:36;;;;;;;24.93;13.60;;;1.30;99.90;;;;;;4976042;28;20174;-85
2021/01/17 07:56:15;;;;;;;29.83;15.63;;;1.10;99.90;;;;;;4972065;28;20302;-84
2021/01/17 07:58:50;;;;;;;28.03;14.60;;;1.00;99.90;;;;;;4991862;28;20280;-84
2021/01/17 08:01:31;;;;;;;28.37;14.53;;;0.90;99.90;;;;;;4996135;28;20182;-84
2021/01/17 08:04:16;;;;;;;26.33;14.23;;;0.80;99.90;;;;;;4994916;28;20178;-84
2021/01/17 08:06:41;;;;;;;29.97;14.87;;;0.70;99.90;;;;;;4995867;28;20202;-84
2021/01/17 08:09:18;;;;;;;24.87;13.60;;;0.70;99.90;;;;;;4994427;28;20210;-83
2021/01/17 08:11:45;;;;;;;25.63;13.93;;;0.60;99.90;;;;;;4976960;28;20186;-83
2021/01/17 08:14:33;;;;;;;27.73;14.70;;;0.60;99.90;;;;;;5005201;28;20182;-87
2021/01/17 08:17:20;;;;;;;26.07;13.30;;;0.40;99.90;;;;;;4972567;28;20198;-83
2021/01/17 08:20:00;;;;;;;30.10;14.90;;;0.40;99.90;;;;;;4992057;28;20178;-83
2021/01/17 08:22:26;;;;;;;27.97;14.27;;;0.40;99.90;;;;;;4995307;28;20143;-83
2021/01/17 08:25:00;;;;;;;26.23;13.37;;;0.40;99.90;;;;;;4991640;28;20212;-84
2021/01/17 08:27:32;;;;;;;30.00;13.80;;;0.40;99.90;;;;;;4993437;28;20210;-84
2021/01/17 08:30:06;;;;;;;30.67;15.97;;;0.30;99.90;;;;;;4992918;28;20187;-84
2021/01/17 08:35:55;;;;;;;32.07;15.20;;;0.30;99.90;;;;;;4994290;28;20205;-83
2021/01/17 08:38:22;;;;;;;28.53;14.80;;;0.30;99.90;;;;;;4993100;28;20182;-84
2021/01/17 08:40:50;;;;;;;31.93;16.33;;;0.30;99.90;;;;;;5006650;28;20221;-84
2021/01/17 08:43:17;;;;;;;29.13;14.80;;;0.30;99.90;;;;;;5350578;23;20218;-83
2021/01/17 08:45:47;;;;;;;33.00;15.73;;;0.30;99.90;;;;;;4988985;28;20210;-83
2021/01/17 08:48:26;;;;;;;33.63;16.37;;;0.20;99.90;;;;;;4971390;28;20183;-83
2021/01/17 08:50:56;;;;;;;31.80;16.00;;;0.20;99.90;;;;;;4971314;28;20193;-83
2021/01/17 08:53:32;;;;;;;31.87;15.00;;;0.20;99.90;;;;;;4968846;28;20278;-83
2021/01/17 08:56:01;;;;;;;33.87;16.37;;;0.20;99.90;;;;;;4964187;29;20257;-83
2021/01/17 08:58:27;;;;;;;36.33;17.77;;;0.20;99.90;;;;;;4963204;29;20199;-82
2021/01/17 09:00:52;;;;;;;35.20;16.67;;;0.20;99.90;;;;;;4957936;28;20195;-83
2021/01/17 09:03:29;;;;;;;33.13;15.77;;;0.20;99.90;;;;;;4976730;28;20661;-83
2021/01/17 09:06:01;;;;;;;29.87;15.20;;;0.20;99.90;;;;;;4958239;28;20684;-84
2021/01/17 09:08:31;;;;;;;32.80;16.70;;;0.30;99.90;;;;;;4970785;28;20179;-84
2021/01/17 09:10:58;;;;;;;33.07;16.93;;;0.30;99.90;;;;;;4961362;29;20222;-83
2021/01/17 09:13:29;;;;;;;34.63;17.80;;;0.30;99.90;;;;;;4979446;28;20251;-83
2021/01/17 09:15:55;;;;;;;33.20;18.10;;;0.20;99.90;;;;;;4970036;28;20309;-87
2021/01/17 09:18:28;;;;;;;35.43;18.50;;;0.30;99.90;;;;;;4967532;28;20214;-84
2021/01/17 09:20:57;;;;;;;30.70;16.43;;;0.30;99.90;;;;;;4965922;29;20179;-83
2021/01/17 09:23:24;;;;;;;34.33;17.83;;;0.30;99.90;;;;;;4970279;29;20185;-84
2021/01/17 09:25:58;;;;;;;32.73;17.57;;;0.30;99.90;;;;;;4968300;28;20305;-84
2021/01/17 09:28:25;;;;;;;37.33;17.30;;;0.30;99.90;;;;;;4972316;28;20186;-84
2021/01/17 09:30:52;;;;;;;34.47;17.13;;;0.40;99.90;;;;;;4979006;28;20183;-83
2021/01/17 09:33:19;;;;;;;30.83;16.37;;;0.30;99.90;;;;;;4970991;29;20802;-83
2021/01/17 09:35:54;;;;;;;41.67;18.47;;;0.30;99.90;;;;;;4974458;28;20640;-83
2021/01/17 09:38:24;;;;;;;34.70;16.73;;;0.40;99.90;;;;;;4974570;28;20186;-83
2021/01/17 09:40:56;;;;;;;35.83;18.70;;;0.40;99.90;;;;;;4975641;29;20245;-85
2021/01/17 09:43:24;;;;;;;33.13;17.33;;;0.40;99.90;;;;;;4976635;29;20276;-85
2021/01/17 09:45:57;;;;;;;39.20;20.00;;;0.50;99.90;;;;;;4975019;28;20223;-84
2021/01/17 09:48:24;;;;;;;38.07;19.93;;;0.50;99.90;;;;;;4972595;29;20241;-83
2021/01/17 09:50:51;;;;;;;34.77;17.43;;;0.40;99.90;;;;;;4978234;28;20526;-85
2021/01/17 09:53:17;;;;;;;42.13;21.07;;;0.50;99.90;;;;;;4975430;28;20183;-84
2021/01/17 09:55:45;;;;;;;40.20;19.03;;;0.30;99.90;;;;;;4974456;28;20190;-84
2021/01/17 09:58:13;;;;;;;37.10;19.20;;;0.40;99.90;;;;;;4985890;28;20187;-84
2021/01/17 10:00:43;;;;;;;42.87;20.27;;;0.50;99.90;;;;;;4978172;28;20191;-85
2021/01/17 10:03:28;;;;;;;38.00;19.53;;;0.50;99.90;;;;;;4973834;29;20183;-83
2021/01/17 10:05:54;;;;;;;42.87;19.53;;;0.50;99.90;;;;;;4975470;28;20211;-83
2021/01/17 10:08:20;;;;;;;42.03;21.10;;;0.60;99.90;;;;;;4972399;28;20205;-83
2021/01/17 10:10:47;;;;;;;41.27;20.70;;;0.40;99.90;;;;;;4973007;29;20187;-85
2021/01/17 10:13:13;;;;;;;40.17;20.20;;;0.40;99.90;;;;;;4976739;28;20263;-84
2021/01/17 10:15:40;;;;;;;41.10;20.93;;;0.40;99.90;;;;;;4975778;29;20191;-84
2021/01/17 10:18:06;;;;;;;37.70;19.70;;;0.40;99.90;;;;;;4976526;29;20170;-84
2021/01/17 10:20:38;;;;;;;46.40;21.10;;;0.40;99.90;;;;;;4974804;28;20222;-84
2021/01/17 10:23:18;;;;;;;39.17;19.07;;;0.50;99.90;;;;;;4977368;28;20191;-83
2021/01/17 10:25:45;;;;;;;36.13;18.53;;;0.50;99.90;;;;;;4983970;28;20202;-83
2021/01/17 10:28:12;;;;;;;32.80;16.90;;;0.50;99.90;;;;;;4974360;28;20171;-83
2021/01/17 10:30:41;;;;;;;39.80;20.00;;;0.50;99.90;;;;;;4986880;28;20179;-83
2021/01/17 10:33:10;;;;;;;41.47;19.80;;;0.60;99.90;;;;;;4977864;28;20553;-84
2021/01/17 10:35:38;;;;;;;38.87;20.90;;;0.40;99.90;;;;;;4974707;28;20191;-84
2021/01/17 10:38:06;;;;;;;40.80;20.47;;;0.50;99.90;;;;;;4979162;28;20179;-84
2021/01/17 10:40:32;;;;;;;38.60;19.13;;;0.60;99.90;;;;;;4978671;28;20271;-85
2021/01/17 10:43:01;;;;;;;39.67;19.17;;;0.60;99.90;;;;;;4986574;28;20225;-86
2021/01/17 10:45:29;;;;;;;33.03;17.33;;;0.60;99.90;;;;;;4981927;28;20215;-86
2021/01/17 10:48:10;;;;;;;40.87;21.23;;;0.70;99.90;;;;;;4975366;28;20234;-84
2021/01/17 10:50:47;;;;;;;45.40;22.63;;;0.70;99.90;;;;;;4977735;28;20217;-83
2021/01/17 10:53:33;;;;;;;43.20;22.60;;;0.70;99.90;;;;;;4970160;29;20187;-84
2021/01/17 10:55:59;;;;;;;41.47;20.33;;;0.80;99.90;;;;;;4975466;28;20211;-83
2021/01/17 10:58:35;;;;;;;40.90;20.60;;;0.80;99.90;;;;;;4974682;29;20201;-85
2021/01/17 11:01:01;;;;;;;38.00;19.00;;;0.80;99.90;;;;;;4959961;28;20206;-84
2021/01/17 11:03:30;;;;;;;39.77;20.20;;;0.80;99.90;;;;;;4974247;28;20187;-84
2021/01/17 11:06:23;;;;;;;42.80;20.30;;;0.90;99.90;;;;;;4990685;28;20523;-84
2021/01/17 11:08:51;;;;;;;45.50;22.20;;;0.90;99.90;;;;;;4967222;29;20224;-86
2021/01/17 11:11:18;;;;;;;37.80;18.90;;;1.00;99.90;;;;;;4961821;28;20187;-91
2021/01/17 11:13:54;;;;;;;35.07;18.23;;;0.90;99.90;;;;;;4990879;28;20249;-84
2021/01/17 11:16:42;;;;;;;36.77;19.03;;;0.90;99.90;;;;;;4976868;28;20308;-82
2021/01/17 11:19:12;;;;;;;35.87;18.80;;;1.00;99.90;;;;;;4976890;28;20234;-90
2021/01/17 11:21:38;;;;;;;37.70;18.93;;;1.00;99.90;;;;;;4980735;28;20197;-85
2021/01/17 11:24:05;;;;;;;37.13;17.83;;;1.10;99.90;;;;;;4970354;28;20251;-83
2021/01/17 11:26:32;;;;;;;41.47;20.63;;;1.00;99.90;;;;;;4969198;28;20222;-85
2021/01/17 11:29:00;;;;;;;39.43;20.50;;;1.10;99.90;;;;;;4965193;28;20194;-83
2021/01/17 11:31:27;;;;;;;39.03;18.97;;;1.20;99.90;;;;;;4982244;28;20202;-83
2021/01/17 11:33:52;;;;;;;37.13;19.47;;;1.20;99.90;;;;;;4971503;28;20577;-84
2021/01/17 11:36:28;;;;;;;41.47;19.53;;;1.10;99.90;;;;;;4970921;28;20225;-84
2021/01/17 11:44:08;;;;;;;36.57;19.57;;;1.20;99.90;;;;;;5503800;23;20253;-86
2021/01/17 11:46:33;;;;;;;37.30;19.03;;;1.20;99.90;;;;;;4988448;28;20225;-85
2021/01/17 11:49:00;;;;;;;39.70;18.40;;;1.30;99.90;;;;;;4978451;28;20176;-85
2021/01/17 11:51:26;;;;;;;41.80;20.63;;;1.40;99.90;;;;;;4994220;28;20175;-85
2021/01/17 11:53:51;;;;;;;37.87;20.00;;;1.40;99.90;;;;;;4978791;28;20182;-84
2021/01/17 11:56:17;;;;;;;42.23;21.17;;;1.40;99.90;;;;;;4977766;28;20243;-84
2021/01/17 12:01:24;;;;;;;39.77;20.17;;;1.50;99.90;;;;;;4988622;28;20218;-84
2021/01/17 12:04:02;;;;;;;43.40;20.73;;;1.40;99.90;;;;;;4996844;28;20212;-85
2021/01/17 12:06:28;;;;;;;35.97;18.87;;;1.40;99.90;;;;;;5358100;23;20233;-83
2021/01/17 12:09:01;;;;;;;38.33;21.20;;;1.40;99.90;;;;;;4998274;28;20182;-87
2021/01/17 12:11:26;;;;;;;35.20;18.63;;;1.30;99.90;;;;;;5013223;28;20174;-88
2021/01/17 12:13:52;;;;;;;35.20;18.83;;;1.30;99.90;;;;;;5007664;23;20218;-84
2021/01/17 12:16:37;;;;;;;32.10;16.83;;;1.40;99.90;;;;;;4953571;28;20211;-85
2021/01/17 12:19:04;;;;;;;37.87;18.83;;;1.30;99.90;;;;;;4956212;29;20188;-84
2021/01/17 12:21:31;;;;;;;37.40;19.23;;;1.40;99.90;;;;;;4951903;29;20168;-84
2021/01/17 12:23:58;;;;;;;36.13;19.07;;;1.40;99.90;;;;;;4949594;29;20168;-84
2021/01/17 12:31:35;;;;;;;34.10;17.87;;;1.30;99.90;;;;;;4994702;28;20200;-83
2021/01/17 12:34:01;;;;;;;43.33;19.53;;;1.30;99.90;;;;;;4994845;28;20201;-84
2021/01/17 12:36:29;;;;;;;36.77;19.30;;;1.40;99.90;;;;;;4989550;28;20214;-85
2021/01/17 12:38:55;;;;;;;32.87;17.30;;;1.40;99.90;;;;;;4993518;28;20174;-84
2021/01/17 14:45:38;;;;;;;21.50;11.13;;;1.60;99.90;;;;;;6048292;23;20188;-85
2021/01/17 14:48:04;;;;;;;24.17;11.97;;;1.60;99.90;;;;;;4973802;28;20187;-86
2021/01/17 14:50:30;;;;;;;24.17;11.70;;;1.50;99.90;;;;;;4965109;28;20213;-83
2021/01/17 14:52:55;;;;;;;22.87;11.83;;;1.40;99.90;;;;;;4957443;28;20187;-84
2021/01/17 14:55:24;;;;;;;25.60;11.73;;;1.40;99.90;;;;;;4959266;28;20656;-84
2021/01/17 14:57:53;;;;;;;24.80;11.50;;;1.40;99.90;;;;;;4955902;28;20178;-85
2021/01/17 15:00:19;;;;;;;24.50;11.67;;;1.40;99.90;;;;;;4953142;28;20205;-84
2021/01/17 15:02:45;;;;;;;22.93;11.90;;;1.40;99.90;;;;;;4957264;28;20183;-84
2021/01/17 15:05:12;;;;;;;24.73;12.70;;;1.40;99.90;;;;;;4954433;29;20703;-85
2021/01/17 15:07:39;;;;;;;23.73;12.23;;;1.40;99.90;;;;;;4958074;28;20190;-85
2021/01/17 15:10:05;;;;;;;23.27;11.90;;;1.30;99.90;;;;;;4956963;28;20749;-83
2021/01/17 15:12:32;;;;;;;20.80;11.07;;;1.30;99.90;;;;;;4957537;28;20207;-84
2021/01/17 15:14:58;;;;;;;24.10;11.13;;;1.30;99.90;;;;;;4956480;28;20266;-84
2021/01/17 15:17:23;;;;;;;23.87;11.43;;;1.30;99.90;;;;;;4957147;28;20215;-85
2021/01/17 15:19:52;;;;;;;22.67;11.40;;;1.30;99.90;;;;;;4952348;28;20271;-84
2021/01/17 15:22:18;;;;;;;21.83;10.73;;;1.30;99.90;;;;;;4966542;28;20306;-85
2021/01/17 15:24:43;;;;;;;23.73;11.80;;;1.30;99.90;;;;;;4955261;29;20415;-85
2021/01/17 15:27:09;;;;;;;25.85;13.10;;;1.30;99.90;;;;;;4951018;28;20433;-83
2021/01/17 15:29:35;;;;;;;21.90;11.37;;;1.30;99.90;;;;;;4950654;28;20183;-83
2021/01/17 15:32:02;;;;;;;22.27;10.87;;;1.50;99.90;;;;;;4953916;28;20179;-84
2021/01/17 15:34:28;;;;;;;21.60;11.20;;;1.90;99.90;;;;;;4969152;28;20238;-83
2021/01/17 15:36:53;;;;;;;24.80;10.77;;;2.30;99.90;;;;;;4955286;29;20649;-84
2021/01/17 15:39:19;;;;;;;34.17;12.63;;;2.40;99.90;;;;;;4954417;28;20237;-84
2021/01/17 15:41:44;;;;;;;22.50;10.80;;;2.40;99.90;;;;;;4953832;28;20684;-84
2021/01/17 15:44:10;;;;;;;23.53;12.20;;;2.40;99.90;;;;;;4949866;28;20187;-83
2021/01/17 15:46:37;;;;;;;23.87;12.17;;;2.30;99.90;;;;;;4951132;28;20302;-86
2021/01/17 15:49:06;;;;;;;28.17;13.10;;;2.20;99.90;;;;;;4950705;28;20617;-84
2021/01/17 15:51:33;;;;;;;23.93;12.53;;;2.10;99.90;;;;;;4954397;28;20202;-84
2021/01/17 15:53:58;;;;;;;24.17;10.60;;;2.00;99.90;;;;;;4955111;28;20197;-84
2021/01/17 15:56:24;;;;;;;24.60;11.33;;;1.90;99.90;;;;;;4953348;28;20662;-85
2021/01/17 15:58:50;;;;;;;26.83;12.60;;;1.80;99.90;;;;;;4953831;28;20190;-83
2021/01/17 16:01:16;;;;;;;22.50;12.50;;;1.70;99.90;;;;;;4953997;28;20215;-84
2021/01/17 16:03:42;;;;;;;29.80;13.93;;;1.60;99.90;;;;;;4953991;28;20278;-86
2021/01/17 16:06:09;;;;;;;26.63;12.40;;;1.60;99.90;;;;;;4950135;28;20294;-83
2021/01/17 16:08:34;;;;;;;25.00;12.40;;;1.60;99.90;;;;;;4952874;28;20191;-85
2021/01/17 16:10:59;;;;;;;22.37;10.83;;;1.50;99.90;;;;;;4943330;28;20213;-83
2021/01/17 16:13:25;;;;;;;23.63;12.17;;;1.50;99.90;;;;;;4949285;29;20813;-85
2021/01/17 16:15:51;;;;;;;25.40;12.40;;;1.40;99.90;;;;;;4954009;28;20179;-85
2021/01/17 16:18:24;;;;;;;24.17;11.57;;;1.40;99.90;;;;;;4953319;28;20187;-83
2021/01/17 16:20:50;;;;;;;21.97;10.87;;;1.30;99.90;;;;;;4952684;28;20233;-83
2021/01/17 16:23:16;;;;;;;22.80;11.27;;;1.30;99.90;;;;;;4971258;28;20194;-84
2021/01/17 16:25:43;;;;;;;23.33;11.80;;;1.40;99.90;;;;;;4952450;29;20202;-85
2021/01/17 16:28:09;;;;;;;22.77;10.33;;;1.30;99.90;;;;;;4949464;29;20183;-85
2021/01/17 16:30:34;;;;;;;22.07;11.40;;;1.30;99.90;;;;;;4954013;28;20202;-83
2021/01/17 16:33:05;;;;;;;24.10;12.93;;;1.30;99.90;;;;;;4954869;28;20201;-84
2021/01/17 16:35:30;;;;;;;24.87;11.13;;;1.20;99.90;;;;;;4951491;29;20183;-84
2021/01/17 16:38:00;;;;;;;22.13;10.60;;;1.20;99.90;;;;;;4954858;28;20641;-86
2021/01/17 16:40:25;;;;;;;20.90;10.43;;;1.10;99.90;;;;;;4968780;28;20243;-85
2021/01/17 16:42:53;;;;;;;22.50;11.83;;;1.20;99.90;;;;;;4954946;28;20258;-84
2021/01/17 16:45:21;;;;;;;24.30;11.97;;;1.20;99.90;;;;;;4952455;29;20203;-84
2021/01/17 16:47:46;;;;;;;25.43;11.53;;;1.20;99.90;;;;;;4946044;28;20270;-85
2021/01/17 16:50:12;;;;;;;24.17;11.10;;;1.10;99.90;;;;;;4953853;28;20605;-85
2021/01/17 16:52:41;;;;;;;25.20;12.40;;;1.10;99.90;;;;;;4947099;28;20266;-84
2021/01/17 16:55:11;;;;;;;26.13;11.77;;;1.10;99.90;;;;;;4948984;28;20190;-85
2021/01/17 16:57:36;;;;;;;40.50;17.88;;;1.10;99.90;;;;;;4950253;29;20467;-83
2021/01/17 17:00:04;;;;;;;29.43;15.00;;;1.20;99.90;;;;;;4952919;28;20211;-83
2021/01/17 17:02:29;;;;;;;31.17;14.20;;;1.20;99.90;;;;;;4947140;28;20194;-83
2021/01/17 17:04:54;;;;;;;27.10;12.80;;;1.20;99.90;;;;;;4953547;29;20206;-84
2021/01/17 17:07:20;;;;;;;27.77;12.50;;;1.20;99.90;;;;;;4954565;29;20645;-83
2021/01/17 17:09:45;;;;;;;32.37;13.80;;;1.20;99.90;;;;;;4966067;28;20189;-84
2021/01/17 17:12:11;;;;;;;30.33;14.57;;;1.20;99.90;;;;;;4953003;28;20183;-84
2021/01/17 17:14:36;;;;;;;29.10;13.00;;;1.10;99.90;;;;;;4954066;28;20186;-84
2021/01/17 17:17:02;;;;;;;26.40;13.33;;;1.10;99.90;;;;;;4952902;28;20562;-84
2021/01/17 17:19:29;;;;;;;28.03;13.13;;;1.10;99.90;;;;;;4951153;28;20198;-86
2021/01/17 17:21:54;;;;;;;26.17;14.10;;;1.10;99.90;;;;;;4955588;28;20186;-84
2021/01/17 17:24:20;;;;;;;30.27;15.20;;;1.10;99.90;;;;;;4951689;28;20203;-84
2021/01/17 17:26:45;;;;;;;32.83;14.67;;;1.10;99.90;;;;;;4950512;28;20218;-83
2021/01/17 17:29:12;;;;;;;27.53;13.40;;;1.00;99.90;;;;;;4948678;28;20657;-84
2021/01/17 17:31:46;;;;;;;31.80;14.77;;;1.00;99.90;;;;;;4952743;28;20711;-85
2021/01/17 17:34:13;;;;;;;28.87;14.33;;;1.00;99.90;;;;;;4951160;29;20186;-85
2021/01/17 17:36:39;;;;;;;28.90;13.53;;;1.00;99.90;;;;;;4952909;29;20186;-85
2021/01/17 17:39:05;;;;;;;31.67;13.90;;;1.00;99.90;;;;;;4951147;28;20273;-86
2021/01/17 17:41:30;;;;;;;27.00;13.07;;;1.00;99.90;;;;;;4951662;28;20336;-85
2021/01/17 17:43:56;;;;;;;30.07;15.07;;;1.00;99.90;;;;;;4947946;29;20229;-85
2021/01/17 17:46:23;;;;;;;27.73;14.23;;;1.00;99.90;;;;;;4967112;28;20214;-84
2021/01/17 17:48:49;;;;;;;26.43;12.53;;;1.00;99.90;;;;;;4952245;28;20614;-85
2021/01/17 17:51:14;;;;;;;26.03;11.83;;;1.00;99.90;;;;;;4952927;28;20199;-85
2021/01/17 17:53:40;;;;;;;25.43;12.40;;;1.00;99.90;;;;;;4954933;28;20210;-83
2021/01/17 17:56:10;;;;;;;25.60;12.33;;;1.00;99.90;;;;;;4954568;28;20194;-83
2021/01/17 17:58:35;;;;;;;24.47;11.70;;;1.00;99.90;;;;;;4955414;29;20661;-83
2021/01/17 18:01:02;;;;;;;26.63;13.60;;;1.00;99.90;;;;;;4954193;28;20261;-84
2021/01/17 18:03:27;;;;;;;23.70;12.60;;;1.00;99.90;;;;;;4955373;28;20182;-82
2021/01/17 18:05:53;;;;;;;29.53;13.70;;;1.00;99.90;;;;;;4957342;28;20774;-83
2021/01/17 18:08:18;;;;;;;26.33;12.57;;;1.00;99.90;;;;;;4954430;28;20186;-83
2021/01/17 18:10:44;;;;;;;24.10;12.23;;;1.00;99.90;;;;;;4953369;28;20195;-83
2021/01/17 18:13:09;;;;;;;23.93;12.33;;;1.00;99.90;;;;;;4959150;28;20543;-86
2021/01/17 18:15:35;;;;;;;30.17;14.17;;;1.00;99.90;;;;;;4963497;28;20191;-83
2021/01/17 18:18:01;;;;;;;33.07;14.83;;;0.90;99.90;;;;;;4965573;28;20188;-83
2021/01/17 18:20:26;;;;;;;30.20;13.07;;;0.90;99.90;;;;;;4966535;28;20267;-85
2021/01/17 18:22:53;;;;;;;26.70;13.40;;;0.90;99.90;;;;;;4968781;29;20191;-87
2021/01/17 18:25:24;;;;;;;26.17;13.27;;;0.90;99.90;;;;;;4970633;29;20211;-85
2021/01/17 18:27:50;;;;;;;30.37;15.37;;;0.90;99.90;;;;;;4970105;28;20186;-87
2021/01/17 18:30:17;;;;;;;28.00;14.40;;;0.90;99.90;;;;;;4967809;28;20210;-84
2021/01/17 18:32:43;;;;;;;28.30;13.53;;;0.80;99.90;;;;;;4964801;29;21889;-83
2021/01/17 18:35:11;;;;;;;28.03;13.73;;;0.90;99.90;;;;;;4966321;28;20266;-84
2021/01/17 18:37:44;;;;;;;27.17;13.63;;;0.80;99.90;;;;;;4970372;28;20187;-86
2021/01/17 18:40:11;;;;;;;25.83;12.43;;;0.90;99.90;;;;;;4968387;28;20199;-86
2021/01/17 21:19:27;;;;;;;33.00;14.93;;;0.90;99.90;;;;;;5548413;23;20596;-85
2021/01/17 21:21:53;;;;;;;32.17;16.00;;;1.00;99.90;;;;;;5000902;28;20194;-86
2021/01/17 21:24:19;;;;;;;30.87;15.87;;;1.00;99.90;;;;;;4987424;28;20193;-87
2021/01/17 21:26:45;;;;;;;35.97;18.00;;;1.00;99.90;;;;;;5003318;28;20436;-86
2021/01/17 21:29:10;;;;;;;34.57;14.83;;;1.00;99.90;;;;;;4982854;28;20206;-85
2021/01/17 21:31:36;;;;;;;26.30;13.37;;;1.10;99.90;;;;;;4983044;28;20193;-83
2021/01/17 21:34:02;;;;;;;29.27;13.70;;;1.10;99.90;;;;;;4960700;28;20178;-84
2021/01/17 21:36:27;;;;;;;28.17;14.40;;;1.10;99.90;;;;;;4978636;28;20616;-82
2021/01/17 21:38:53;;;;;;;28.73;12.93;;;1.00;99.90;;;;;;4973815;28;20754;-84
2021/01/17 21:41:20;;;;;;;28.17;13.17;;;1.00;99.90;;;;;;4958774;28;20245;-84
2021/01/17 21:43:47;;;;;;;28.13;14.13;;;1.00;99.90;;;;;;4959950;28;20559;-84
2021/01/17 21:46:16;;;;;;;29.30;14.43;;;0.90;99.90;;;;;;4957560;28;20217;-84
2021/01/17 21:48:43;;;;;;;28.10;14.27;;;0.90;99.90;;;;;;4960192;28;20202;-83
2021/01/17 21:51:09;;;;;;;32.93;13.77;;;1.00;99.90;;;;;;4959388;28;20223;-84
2021/01/17 21:53:35;;;;;;;28.37;13.57;;;1.00;99.90;;;;;;4977018;28;20178;-86
2021/01/17 21:56:01;;;;;;;29.37;13.73;;;1.00;99.90;;;;;;4957170;28;20284;-85
2021/01/17 21:58:27;;;;;;;31.63;14.10;;;0.90;99.90;;;;;;4957853;28;20293;-86
2021/01/17 22:00:52;;;;;;;29.60;14.37;;;0.90;99.90;;;;;;4978235;28;20608;-83
2021/01/17 22:03:18;;;;;;;29.00;13.63;;;0.90;99.90;;;;;;4958103;28;20203;-81
2021/01/17 22:05:43;;;;;;;28.57;13.67;;;1.00;99.90;;;;;;4960410;28;20190;-82
2021/01/17 22:08:09;;;;;;;26.13;12.23;;;1.00;99.90;;;;;;4960701;28;20181;-85
2021/01/17 22:10:34;;;;;;;26.03;12.47;;;1.00;99.90;;;;;;4960782;28;20273;-85
2021/01/17 22:13:00;;;;;;;32.03;13.40;;;1.00;99.90;;;;;;4960507;28;20187;-83
2021/01/17 22:15:25;;;;;;;30.33;13.33;;;1.00;99.90;;;;;;4978428;28;20240;-83
2021/01/17 22:17:53;;;;;;;25.27;13.47;;;1.00;99.90;;;;;;4977926;28;20186;-81
2021/01/17 22:20:19;;;;;;;26.83;13.27;;;1.00;99.90;;;;;;4978562;28;20268;-82
2021/01/17 22:22:46;;;;;;;26.47;13.47;;;1.00;99.90;;;;;;4960561;28;20196;-83
2021/01/17 22:25:13;;;;;;;26.93;13.23;;;1.00;99.90;;;;;;4960800;28;20182;-83
2021/01/17 22:27:39;;;;;;;26.57;12.90;;;1.10;99.90;;;;;;4977967;28;20170;-85
2021/01/17 22:30:08;;;;;;;24.73;13.03;;;1.00;99.90;;;;;;4960571;28;20202;-85
2021/01/17 22:32:34;;;;;;;27.17;13.60;;;1.10;99.90;;;;;;4957826;29;20282;-86
2021/01/17 22:35:00;;;;;;;27.37;13.00;;;1.10;99.90;;;;;;4940687;29;20638;-83
2021/01/17 22:37:25;;;;;;;28.53;14.13;;;1.00;99.90;;;;;;4958338;29;20187;-85
2021/01/17 22:39:52;;;;;;;33.17;14.57;;;1.00;99.90;;;;;;4941172;29;20199;-83
2021/01/17 22:42:18;;;;;;;31.63;13.60;;;0.90;99.90;;;;;;4959288;29;20186;-84
2021/01/17 22:44:43;;;;;;;27.83;13.00;;;1.00;99.90;;;;;;4941993;29;20574;-83
2021/01/17 22:47:09;;;;;;;31.10;14.60;;;1.00;99.90;;;;;;4970046;28;20763;-83
2021/01/17 22:49:35;;;;;;;27.03;13.70;;;1.00;99.90;;;;;;4960271;28;20198;-83
2021/01/17 22:52:02;;;;;;;32.43;14.77;;;0.90;99.90;;;;;;4977568;28;20217;-84
2021/01/17 22:54:28;;;;;;;27.57;13.87;;;0.90;99.90;;;;;;4960360;28;20178;-86
2021/01/17 22:56:58;;;;;;;30.63;14.30;;;0.90;99.90;;;;;;4960310;28;20190;-82
2021/01/17 22:59:24;;;;;;;29.33;13.63;;;0.90;99.90;;;;;;4960400;28;20698;-84
2021/01/17 23:02:01;;;;;;;28.13;14.00;;;1.00;99.90;;;;;;4960464;28;20206;-84
2021/01/17 23:04:27;;;;;;;30.83;13.70;;;1.00;99.90;;;;;;4960403;28;20569;-85
2021/01/17 23:06:59;;;;;;;31.13;15.17;;;1.00;99.90;;;;;;4977684;28;20574;-83
2021/01/17 23:09:26;;;;;;;28.43;14.07;;;1.00;99.90;;;;;;4977603;28;20194;-83
2021/01/17 23:11:53;;;;;;;27.13;13.97;;;1.00;99.90;;;;;;4960967;28;20406;-84
2021/01/17 23:14:19;;;;;;;31.33;13.73;;;0.90;99.90;;;;;;4978109;28;20233;-85
2021/01/17 23:16:45;;;;;;;30.57;15.53;;;0.90;99.90;;;;;;4960134;28;20182;-83
2021/01/17 23:19:11;;;;;;;33.03;14.73;;;0.80;99.90;;;;;;4977368;28;20276;-83
2021/01/17 23:21:36;;;;;;;30.53;14.13;;;0.80;99.90;;;;;;4960251;28;20599;-85
2021/01/17 23:24:03;;;;;;;31.23;14.97;;;0.90;99.90;;;;;;4960228;28;20181;-83
2021/01/17 23:26:37;;;;;;;30.87;14.43;;;0.80;99.90;;;;;;4959836;28;20222;-85
2021/01/17 23:29:04;;;;;;;34.13;16.00;;;0.80;99.90;;;;;;4977327;28;20280;-84
2021/01/17 23:31:30;;;;;;;30.83;14.77;;;0.80;99.90;;;;;;4977555;28;20185;-82
2021/01/17 23:33:56;;;;;;;31.33;14.43;;;0.70;99.90;;;;;;4978291;28;20202;-84
2021/01/17 23:36:21;;;;;;;31.37;14.27;;;0.80;99.90;;;;;;4959849;28;20186;-85
2021/01/17 23:38:47;;;;;;;34.97;15.97;;;0.80;99.90;;;;;;4959955;28;20205;-85
2021/01/17 23:41:20;;;;;;;32.87;15.13;;;0.90;99.90;;;;;;4960123;28;20197;-82
2021/01/17 23:43:45;;;;;;;36.17;15.23;;;0.80;99.90;;;;;;4960203;28;20185;-83
2021/01/17 23:46:11;;;;;;;31.80;14.90;;;0.80;99.90;;;;;;4959558;28;20580;-83
2021/01/17 23:48:37;;;;;;;27.07;14.10;;;0.80;99.90;;;;;;4959945;28;20198;-82
2021/01/17 23:51:03;;;;;;;27.87;13.87;;;0.90;99.90;;;;;;4959843;28;20176;-82